Time;durP1;ratioP1;P1;durP2;ratioP2;P2;SDS_P1;SDS_P2;PMS_P1;PMS_P2;Temp;Humidity;BMP_temperature;BMP_pressure;BME280_temperature;BME280_humidity;BME280_pressure;Samples;Min_cycle;Max_cycle;Signal;HPM_P1;HPM_P2
2022/11/05 00:09:30;;;;;;;;;;;;;;;15.34;52.27;98513.88;4975952;28;19949;-70
2022/11/05 00:17:24;;;;;;;;;;;;;;;15.32;52.36;98504.47;4974458;28;19925;-70
2022/11/05 00:19:49;;;;;;;;;;;;;;;15.31;52.31;98505.47;4975681;28;19918;-70
2022/11/05 00:25:15;;;;;;;;;;;;;;;15.29;52.24;98500.38;4974462;28;19961;-71
2022/11/05 00:27:41;;;;;;;;;;;;;;;15.28;52.28;98495.25;4990357;28;19918;-71
2022/11/05 00:30:06;;;;;;;;;;;;;;;15.29;52.19;98497.72;4975187;28;20312;-71
2022/11/05 00:32:32;;;;;;;;;;;;;;;15.27;52.25;98499.66;4974130;28;19944;-71
2022/11/05 00:34:57;;;;;;;;;;;;;;;15.25;52.38;98496.38;4973711;28;19937;-71
2022/11/05 00:37:23;;;;;;;;;;;;;;;15.25;52.38;98496.38;4974591;28;20418;-71
2022/11/05 00:39:48;;;;;;;;;;;;;;;15.24;52.46;98497.34;4957266;28;19919;-71
2022/11/05 00:45:00;;;;;;;;;;;;;;;15.23;52.37;98500.13;4974959;28;19969;-71
2022/11/05 00:50:09;;;;;;;;;;;;;;;15.19;52.33;98497.78;4960306;28;19969;-71
2022/11/05 00:55:18;;;;;;;;;;;;;;;15.17;52.42;98498.94;4974632;28;19925;-71
2022/11/05 00:57:44;;;;;;;;;;;;;;;15.15;52.52;98496.47;4968004;28;20389;-71
2022/11/05 01:00:10;;;;;;;;;;;;;;;15.15;52.52;98499.09;4954025;29;19918;-71
2022/11/05 01:02:35;;;;;;;;;;;;;;;15.14;52.44;98494.81;4955373;29;19919;-71
2022/11/05 01:05:00;;;;;;;;;;;;;;;15.14;52.51;98491.34;4955449;29;19918;-70
2022/11/05 01:07:25;;;;;;;;;;;;;;;15.14;52.42;98494.00;4954119;29;19919;-70
2022/11/05 01:09:51;;;;;;;;;;;;;;;15.12;52.49;98483.63;4954011;29;20013;-70
2022/11/05 01:12:16;;;;;;;;;;;;;;;15.11;52.55;98481.16;4953116;29;20317;-70
2022/11/05 01:14:41;;;;;;;;;;;;;;;15.09;52.57;98470.78;4955143;29;19918;-71
2022/11/05 01:17:07;;;;;;;;;;;;;;;15.09;52.61;98475.22;4953997;29;19918;-71
2022/11/05 01:19:32;;;;;;;;;;;;;;;15.09;52.66;98467.34;4955415;29;19926;-70
2022/11/05 01:21:57;;;;;;;;;;;;;;;15.05;52.57;98469.41;4955762;29;19918;-70
2022/11/05 01:24:22;;;;;;;;;;;;;;;15.04;52.86;98472.19;4937908;29;19993;-70
2022/11/05 01:26:48;;;;;;;;;;;;;;;15.04;52.87;98469.56;4937183;29;19919;-70
2022/11/05 01:29:13;;;;;;;;;;;;;;;15.03;52.82;98463.50;4955111;29;20005;-71
2022/11/05 01:31:38;;;;;;;;;;;;;;;15.03;52.95;98460.88;4953654;28;19923;-71
2022/11/05 01:34:04;;;;;;;;;;;;;;;15.02;52.95;98469.72;4954810;29;20061;-71
2022/11/05 01:36:29;;;;;;;;;;;;;;;15.02;52.89;98474.97;4954779;29;19929;-71
2022/11/05 01:38:54;;;;;;;;;;;;;;;15.01;52.79;98471.53;4954838;29;19926;-70
2022/11/05 01:41:20;;;;;;;;;;;;;;;15.00;52.95;98463.81;4954856;29;19926;-70
2022/11/05 01:43:46;;;;;;;;;;;;;;;14.99;53.15;98470.88;4953701;29;19918;-70
2022/11/05 01:46:12;;;;;;;;;;;;;;;14.98;53.08;98466.59;4937484;29;19919;-70
2022/11/05 01:48:37;;;;;;;;;;;;;;;14.99;53.06;98468.25;4937518;29;20377;-71
2022/11/05 01:51:03;;;;;;;;;;;;;;;14.98;53.14;98460.50;4953513;29;19919;-70
2022/11/05 01:53:29;;;;;;;;;;;;;;;14.97;53.07;98459.66;4953612;29;19927;-71
2022/11/05 01:56:11;;;;;;;;;;;;;;;14.97;53.17;98454.41;4953717;29;19923;-71
2022/11/05 01:58:38;;;;;;;;;;;;;;;14.97;53.11;98454.41;4953492;29;19919;-70
2022/11/05 02:01:04;;;;;;;;;;;;;;;14.97;53.05;98453.59;4954492;29;19925;-70
2022/11/05 02:03:29;;;;;;;;;;;;;;;14.94;53.13;98446.84;4953766;29;19919;-70
2022/11/05 02:05:55;;;;;;;;;;;;;;;14.93;53.06;98450.44;4953459;29;19922;-70
2022/11/05 02:08:24;;;;;;;;;;;;;;;14.94;53.23;98454.75;4937644;29;20314;-70
2022/11/05 02:10:50;;;;;;;;;;;;;;;14.92;53.08;98446.16;4954494;29;20006;-70
2022/11/05 02:13:15;;;;;;;;;;;;;;;14.92;52.98;98450.59;4953853;29;20025;-70
2022/11/05 02:15:47;;;;;;;;;;;;;;;14.90;53.04;98445.50;4953135;29;20017;-70
2022/11/05 02:18:14;;;;;;;;;;;;;;;14.88;53.11;98451.88;4953252;29;20453;-71
2022/11/05 02:20:51;;;;;;;;;;;;;;;14.86;53.20;98449.41;4954454;29;19918;-71
2022/11/05 02:23:25;;;;;;;;;;;;;;;14.84;53.02;98441.66;4953232;29;19925;-70
2022/11/05 02:25:56;;;;;;;;;;;;;;;14.85;53.03;98437.25;4954208;29;19918;-71
2022/11/05 02:28:28;;;;;;;;;;;;;;;14.82;53.15;98441.00;4953296;29;20317;-70
2022/11/05 02:30:55;;;;;;;;;;;;;;;14.81;53.36;98451.66;4954320;29;19925;-70
2022/11/05 02:33:24;;;;;;;;;;;;;;;14.79;53.03;98443.09;4937187;29;19925;-70
2022/11/05 02:35:52;;;;;;;;;;;;;;;14.78;53.30;98438.81;4954277;29;19978;-70
2022/11/05 02:38:26;;;;;;;;;;;;;;;14.77;53.22;98434.53;4954309;29;19922;-70
2022/11/05 02:41:14;;;;;;;;;;;;;;;14.76;53.21;98435.53;4954324;29;20001;-70
2022/11/05 02:43:40;;;;;;;;;;;;;;;14.74;53.16;98438.31;4876794;29;19960;-70
2022/11/05 02:46:25;;;;;;;;;;;;;;;14.73;53.32;98436.63;4880125;29;20352;-71
2022/11/05 02:48:50;;;;;;;;;;;;;;;14.72;53.29;98445.53;4878117;29;20449;-71
2022/11/05 02:51:16;;;;;;;;;;;;;;;14.70;53.25;98444.81;4878268;29;19920;-70
2022/11/05 02:53:41;;;;;;;;;;;;;;;14.69;53.30;98450.22;4878215;29;19920;-71
2022/11/05 02:56:17;;;;;;;;;;;;;;;14.69;53.19;98439.72;4878213;29;19954;-71
2022/11/05 02:58:42;;;;;;;;;;;;;;;14.67;53.24;98446.94;4862798;29;19920;-70
2022/11/05 03:01:08;;;;;;;;;;;;;;;14.65;53.32;98449.72;4878063;29;19927;-71
2022/11/05 03:03:36;;;;;;;;;;;;;;;14.64;53.31;98448.91;4862714;29;19952;-70
2022/11/05 03:06:20;;;;;;;;;;;;;;;14.62;53.18;98453.44;4878017;29;20394;-71
2022/11/05 03:08:54;;;;;;;;;;;;;;;14.61;53.18;98456.22;4879815;29;20035;-70
2022/11/05 03:11:20;;;;;;;;;;;;;;;14.59;53.37;98455.53;4864137;29;20428;-70
2022/11/05 03:13:51;;;;;;;;;;;;;;;14.58;53.22;98459.13;4879677;29;20396;-70
2022/11/05 03:16:30;;;;;;;;;;;;;;;14.56;53.38;98464.53;4879432;29;19920;-69
2022/11/05 03:19:05;;;;;;;;;;;;;;;14.55;53.10;98460.25;4864416;29;19931;-71
2022/11/05 03:21:42;;;;;;;;;;;;;;;14.52;53.28;98455.31;4945895;29;19918;-71
2022/11/05 03:24:13;;;;;;;;;;;;;;;14.51;53.35;98453.66;4956115;29;20062;-69
2022/11/05 03:26:44;;;;;;;;;;;;;;;14.50;53.22;98448.53;4957210;29;19968;-72
2022/11/05 03:29:15;;;;;;;;;;;;;;;14.48;53.48;98456.56;4957330;29;19926;-71
2022/11/05 03:31:41;;;;;;;;;;;;;;;14.45;53.13;98448.97;4939801;29;19925;-69
2022/11/05 03:34:06;;;;;;;;;;;;;;;14.44;53.21;98452.59;4955967;29;19919;-71
2022/11/05 03:36:40;;;;;;;;;;;;;;;14.42;53.29;98455.38;4960014;28;20306;-71
2022/11/05 03:39:06;;;;;;;;;;;;;;;14.42;53.07;98451.91;4956032;29;19947;-69
2022/11/05 03:41:31;;;;;;;;;;;;;;;14.41;53.03;98448.47;4939791;29;20021;-71
2022/11/05 03:43:57;;;;;;;;;;;;;;;14.38;53.25;98446.13;4956238;29;19949;-69
2022/11/05 03:46:22;;;;;;;;;;;;;;;14.38;53.06;98446.13;4955762;29;20384;-70
2022/11/05 03:48:48;;;;;;;;;;;;;;;14.38;53.19;98445.31;4956816;29;19919;-70
2022/11/05 03:51:24;;;;;;;;;;;;;;;14.35;53.18;98453.50;4956977;28;20365;-69
2022/11/05 03:53:51;;;;;;;;;;;;;;;14.34;53.11;98450.03;4955723;29;19973;-69
2022/11/05 03:56:19;;;;;;;;;;;;;;;14.32;53.07;98449.34;4954805;28;19919;-71
2022/11/05 03:58:44;;;;;;;;;;;;;;;14.30;53.30;98446.88;4956708;29;19926;-70
2022/11/05 04:01:10;;;;;;;;;;;;;;;14.29;53.12;98444.38;4955577;29;20313;-69
2022/11/05 04:03:35;;;;;;;;;;;;;;;14.27;53.14;98441.91;4954950;29;19922;-69
2022/11/05 04:14:12;;;;;;;;;;;;;;;14.19;53.31;98441.00;4956218;29;20013;-70
2022/11/05 04:24:49;;;;;;;;;;;;;;;14.12;53.06;98435.50;4955806;29;20286;-71
2022/11/05 04:27:15;;;;;;;;;;;;;;;14.11;53.08;98436.50;4956314;29;19922;-72
2022/11/05 04:32:24;;;;;;;;;;;;;;;14.08;52.93;98437.59;4955993;29;19934;-71
2022/11/05 04:34:49;;;;;;;;;;;;;;;14.06;53.06;98442.19;4954679;29;19918;-71
2022/11/05 04:37:15;;;;;;;;;;;;;;;14.05;53.27;98445.78;4954380;29;19930;-69
2022/11/05 04:39:40;;;;;;;;;;;;;;;14.03;53.31;98439.84;4954567;29;19918;-71
2022/11/05 04:42:05;;;;;;;;;;;;;;;14.02;53.27;98451.31;4955849;29;19919;-71
2022/11/05 04:44:30;;;;;;;;;;;;;;;14.02;53.12;98445.25;4954783;29;19918;-70
2022/11/05 04:46:56;;;;;;;;;;;;;;;14.01;53.00;98452.31;4954675;29;20421;-70
2022/11/05 04:49:21;;;;;;;;;;;;;;;14.00;53.17;98452.44;4954820;29;19918;-70
2022/11/05 04:51:46;;;;;;;;;;;;;;;13.99;52.93;98453.41;4954486;29;19919;-70
2022/11/05 04:54:12;;;;;;;;;;;;;;;13.99;53.02;98454.22;4938414;29;19925;-70
2022/11/05 04:56:37;;;;;;;;;;;;;;;13.98;53.05;98455.22;4954259;29;19973;-69
2022/11/05 04:59:02;;;;;;;;;;;;;;;13.98;53.02;98454.38;4954255;29;19919;-71
2022/11/05 05:01:27;;;;;;;;;;;;;;;13.97;53.45;98456.19;4955435;29;19926;-69
2022/11/05 05:03:53;;;;;;;;;;;;;;;13.98;53.04;98462.25;4954341;29;19918;-70
2022/11/05 05:06:18;;;;;;;;;;;;;;;14.02;52.91;98463.63;4953956;28;19922;-69
2022/11/05 05:08:45;;;;;;;;;;;;;;;14.04;53.13;98467.75;4955466;28;19919;-71
2022/11/05 05:11:10;;;;;;;;;;;;;;;14.04;52.94;98464.28;4953999;29;19988;-70
2022/11/05 05:13:36;;;;;;;;;;;;;;;14.07;52.82;98470.09;4955224;29;20403;-69
2022/11/05 05:16:06;;;;;;;;;;;;;;;14.11;52.94;98465.38;4954122;29;19976;-70
2022/11/05 05:18:31;;;;;;;;;;;;;;;14.16;52.79;98472.81;4953122;29;19918;-69
2022/11/05 05:23:40;;;;;;;;;;;;;;;14.26;52.57;98479.66;4954215;29;19926;-71
2022/11/05 05:26:05;;;;;;;;;;;;;;;14.32;52.57;98486.09;4953798;29;19918;-68
2022/11/05 05:28:31;;;;;;;;;;;;;;;14.41;52.27;98489.66;4953617;29;20330;-69
2022/11/05 05:30:59;;;;;;;;;;;;;;;14.50;52.12;98488.78;4954978;29;19919;-70
2022/11/05 05:33:25;;;;;;;;;;;;;;;14.59;51.86;98487.88;4954110;29;19993;-72
2022/11/05 05:35:50;;;;;;;;;;;;;;;14.73;51.62;98498.88;4953288;29;20476;-71
2022/11/05 05:38:16;;;;;;;;;;;;;;;14.82;51.46;98506.69;4937835;28;19930;-69
2022/11/05 05:40:41;;;;;;;;;;;;;;;14.97;51.41;98506.97;4950211;28;19922;-70
2022/11/05 05:43:06;;;;;;;;;;;;;;;15.15;51.10;98511.44;4956896;28;20290;-71
2022/11/05 05:45:33;;;;;;;;;;;;;;;15.31;50.90;98519.44;4940813;28;20313;-69
2022/11/05 05:47:58;;;;;;;;;;;;;;;15.51;50.51;98527.97;4974042;28;20430;-71
2022/11/05 05:50:24;;;;;;;;;;;;;;;15.75;50.17;98534.38;4937252;29;20001;-71
2022/11/05 05:52:49;;;;;;;;;;;;;;;15.96;50.06;98533.22;4954649;29;19960;-71
2022/11/05 05:55:14;;;;;;;;;;;;;;;16.10;50.07;98516.81;4922166;29;20361;-71
2022/11/05 05:57:40;;;;;;;;;;;;;;;16.39;49.59;98524.31;4945031;29;19922;-71
2022/11/05 06:00:05;;;;;;;;;;;;;;;16.67;48.85;98521.47;4952164;28;19922;-71
2022/11/05 06:02:31;;;;;;;;;;;;;;;16.93;48.80;98539.81;4941948;29;19955;-71
2022/11/05 06:04:56;;;;;;;;;;;;;;;17.22;48.31;98535.06;4939705;29;20297;-71
2022/11/05 06:07:21;;;;;;;;;;;;;;;17.45;47.75;98543.16;4938449;29;19919;-72
2022/11/05 06:09:47;;;;;;;;;;;;;;;17.68;47.10;98538.84;4944517;29;19981;-74
2022/11/05 06:12:12;;;;;;;;;;;;;;;17.90;46.60;98539.16;4952989;29;19965;-71
2022/11/05 06:14:37;;;;;;;;;;;;;;;18.40;48.38;98532.69;4953786;29;20308;-73
2022/11/05 06:17:03;;;;;;;;;;;;;;;18.85;46.35;98543.56;4960371;28;19918;-77
2022/11/05 06:19:28;;;;;;;;;;;;;;;19.33;44.82;98548.69;4953137;28;20045;-75
2022/11/05 06:21:53;;;;;;;;;;;;;;;20.13;46.44;98552.56;4946825;29;19918;-77
2022/11/05 06:24:18;;;;;;;;;;;;;;;21.05;44.83;98551.22;4963723;28;19918;-80
2022/11/05 06:26:44;;;;;;;;;;;;;;;21.97;42.69;98551.38;4948429;28;19922;-75
2022/11/05 06:29:09;;;;;;;;;;;;;;;22.82;42.11;98554.66;4941820;28;19925;-84
2022/11/05 06:31:34;;;;;;;;;;;;;;;23.60;37.77;98553.31;4940552;28;20365;-78
2022/11/05 06:34:00;;;;;;;;;;;;;;;24.14;35.88;98554.09;4965700;28;20362;-80
2022/11/05 06:36:25;;;;;;;;;;;;;;;24.61;34.62;98553.97;4951597;28;19997;-78
2022/11/05 06:38:50;;;;;;;;;;;;;;;24.99;33.67;98553.94;4964351;28;20528;-81
2022/11/05 06:41:16;;;;;;;;;;;;;;;25.12;32.76;98552.22;4965600;28;19918;-82
2022/11/05 06:43:41;;;;;;;;;;;;;;;25.38;32.00;98561.94;4948561;28;20370;-83
2022/11/05 06:46:08;;;;;;;;;;;;;;;25.58;31.25;98549.22;4965358;28;19946;-85
2022/11/05 06:48:34;;;;;;;;;;;;;;;25.83;31.02;98556.41;4968562;28;20386;-85
2022/11/05 06:50:59;;;;;;;;;;;;;;;26.05;30.20;98550.69;4963766;28;19918;-78
2022/11/05 06:53:24;;;;;;;;;;;;;;;26.06;30.13;98539.75;4968519;28;19923;-85
